createdAt,value
2017-10-27T00:04:08.662Z,102511.63
2017-10-27T00:06:36.974Z,102507.48
2017-10-27T00:09:05.269Z,102511.36
2017-10-27T00:11:33.608Z,102510.38
2017-10-27T00:14:01.915Z,102507.45
2017-10-27T00:16:30.213Z,102504.95
2017-10-27T00:18:58.547Z,102505.52
2017-10-27T00:21:26.852Z,102507.87
2017-10-27T00:23:55.162Z,102505.79
2017-10-27T00:26:23.484Z,102495.73
2017-10-27T00:28:51.804Z,102487.53
2017-10-27T00:31:20.135Z,102495.17
2017-10-27T00:33:49.219Z,102498.78
2017-10-27T00:36:18.299Z,102495.86
2017-10-27T00:38:46.606Z,102487.89
2017-10-27T00:41:14.965Z,102495.41
2017-10-27T00:43:43.299Z,102504.57
2017-10-27T00:46:11.678Z,102505.94
2017-10-27T00:48:40.061Z,102505.79
2017-10-27T00:51:08.383Z,102502.45
2017-10-27T00:53:36.702Z,102504.15
2017-10-27T00:56:06.682Z,102493.68
2017-10-27T00:58:35.000Z,102491.50
2017-10-27T01:01:03.329Z,102496.36
2017-10-27T01:03:31.659Z,102496.62
2017-10-27T01:06:00.759Z,102496.81
2017-10-27T01:08:29.825Z,102503.19
2017-10-27T01:10:58.144Z,102504.29
2017-10-27T01:13:26.479Z,102499.52
2017-10-27T01:15:54.803Z,102501.88
2017-10-27T01:18:23.904Z,102499.31
2017-10-27T01:20:53.049Z,102498.98
2017-10-27T01:23:21.369Z,102493.11
2017-10-27T01:25:49.686Z,102494.63
2017-10-27T01:28:18.008Z,102498.17
2017-10-27T01:30:46.383Z,102504.13
2017-10-27T01:33:15.622Z,102495.19
2017-10-27T01:35:44.704Z,102502.61
2017-10-27T01:38:13.066Z,102509.49
2017-10-27T01:40:41.377Z,102499.86
2017-10-27T01:43:09.712Z,102488.38
2017-10-27T01:45:38.034Z,102488.05
2017-10-27T01:48:06.364Z,102489.15
2017-10-27T01:50:34.739Z,102492.76
2017-10-27T01:53:03.048Z,102497.55
2017-10-27T01:55:31.352Z,102495.28
2017-10-27T01:57:59.665Z,102501.07
2017-10-27T02:00:28.751Z,102496.12
2017-10-27T02:02:57.938Z,102497.46
2017-10-27T02:05:26.271Z,102491.44
2017-10-27T02:07:54.588Z,102491.64
2017-10-27T02:10:22.897Z,102489.64
2017-10-27T02:12:51.967Z,102488.89
2017-10-27T02:15:20.295Z,102482.88
2017-10-27T02:17:48.619Z,102480.87
2017-10-27T02:20:16.917Z,102471.75
2017-10-27T02:22:45.229Z,102476.45
2017-10-27T02:25:13.560Z,102476.54
2017-10-27T02:27:41.869Z,102472.30
2017-10-27T02:30:10.187Z,102463.00
2017-10-27T02:32:38.495Z,102466.28
2017-10-27T02:35:06.812Z,102466.63
2017-10-27T02:37:35.128Z,102463.80
2017-10-27T02:40:03.446Z,102459.95
2017-10-27T02:42:31.774Z,102467.33
2017-10-27T02:45:00.094Z,102483.03
2017-10-27T02:47:28.408Z,102478.06
2017-10-27T02:49:56.738Z,102471.65
2017-10-27T02:52:25.074Z,102477.78
2017-10-27T02:54:53.413Z,102485.58
2017-10-27T02:57:21.748Z,102480.39
2017-10-27T02:59:50.856Z,102489.62
2017-10-27T03:02:19.936Z,102485.47
2017-10-27T03:04:49.032Z,102482.88
2017-10-27T03:07:17.356Z,102490.34
2017-10-27T03:09:45.684Z,102478.30
2017-10-27T03:12:14.023Z,102487.43
2017-10-27T03:14:42.322Z,102495.14
2017-10-27T03:17:10.626Z,102493.89
2017-10-27T03:19:38.965Z,102504.28
2017-10-27T03:22:07.291Z,102510.67
2017-10-27T03:24:35.635Z,102507.46
2017-10-27T03:27:03.939Z,102515.42
2017-10-27T03:29:32.252Z,102512.31
2017-10-27T03:32:00.586Z,102512.82
2017-10-27T03:34:28.918Z,102516.59
2017-10-27T03:36:57.233Z,102519.42
2017-10-27T03:39:25.552Z,102515.56
2017-10-27T03:41:53.888Z,102518.91
2017-10-27T03:44:22.204Z,102522.69
2017-10-27T03:46:51.314Z,102523.95
2017-10-27T03:49:19.659Z,102532.25
2017-10-27T03:51:48.677Z,102530.53
2017-10-27T03:54:16.997Z,102523.76
2017-10-27T03:56:45.431Z,102533.40
2017-10-27T03:59:13.751Z,102538.27
2017-10-27T04:01:42.386Z,102548.85
2017-10-27T04:04:10.719Z,102545.84
2017-10-27T04:06:39.037Z,102556.98
2017-10-27T04:09:07.339Z,102567.12
2017-10-27T04:11:35.665Z,102567.49
2017-10-27T04:14:03.970Z,102566.66
2017-10-27T04:16:32.299Z,102568.25
2017-10-27T04:19:00.618Z,102560.27
2017-10-27T04:21:29.701Z,102559.09
2017-10-27T04:23:58.013Z,102575.08
2017-10-27T04:26:26.341Z,102571.40
2017-10-27T04:28:54.677Z,102570.93
2017-10-27T04:31:23.765Z,102571.77
2017-10-27T04:33:52.843Z,102570.56
2017-10-27T04:36:21.152Z,102582.70
2017-10-27T04:38:49.477Z,102577.84
2017-10-27T04:41:17.801Z,102586.72
2017-10-27T04:43:46.893Z,102589.91
2017-10-27T04:46:16.061Z,102594.42
2017-10-27T04:48:44.433Z,102598.86
2017-10-27T04:51:12.752Z,102598.44
2017-10-27T04:53:41.058Z,102609.16
2017-10-27T04:56:10.153Z,102612.25
2017-10-27T04:58:39.252Z,102616.61
2017-10-27T05:01:08.335Z,102606.73
2017-10-27T05:03:36.663Z,102612.87
2017-10-27T05:06:04.981Z,102615.39
2017-10-27T05:08:33.316Z,102624.34
2017-10-27T05:11:01.628Z,102624.98
2017-10-27T05:13:29.957Z,102618.87
2017-10-27T05:15:59.074Z,102629.59
2017-10-27T05:18:32.827Z,102633.19
2017-10-27T05:21:06.655Z,102632.34
2017-10-27T05:23:41.325Z,102641.84
2017-10-27T05:26:09.668Z,102643.34
2017-10-27T05:28:37.997Z,102649.38
2017-10-27T05:31:06.309Z,102655.49
2017-10-27T05:33:34.613Z,102650.80
2017-10-27T05:36:03.675Z,102646.70
2017-10-27T05:38:32.022Z,102650.30
2017-10-27T05:41:02.026Z,102646.28
2017-10-27T05:43:31.263Z,102641.84
2017-10-27T05:45:59.587Z,102648.04
2017-10-27T05:48:27.881Z,102654.91
2017-10-27T05:50:56.941Z,102666.71
2017-10-27T05:53:25.252Z,102653.65
2017-10-27T05:55:53.569Z,102657.13
2017-10-27T05:58:21.951Z,102666.25
2017-10-27T06:00:50.267Z,102670.55
2017-10-27T06:03:18.585Z,102661.50
2017-10-27T06:05:47.671Z,102657.73
2017-10-27T06:08:15.970Z,102653.88
2017-10-27T06:10:45.046Z,102664.77
2017-10-27T06:13:13.356Z,102672.62
2017-10-27T06:15:41.688Z,102673.33
2017-10-27T06:18:10.149Z,102681.11
2017-10-27T06:20:38.470Z,102676.91
2017-10-27T06:23:06.818Z,102688.30
2017-10-27T06:25:35.158Z,102708.04
2017-10-27T06:28:04.236Z,102709.46
2017-10-27T06:30:32.557Z,102714.98
2017-10-27T06:33:00.879Z,102713.56
2017-10-27T06:35:29.225Z,102719.59
2017-10-27T06:37:57.541Z,102731.22
2017-10-27T06:40:25.853Z,102738.00
2017-10-27T06:42:54.952Z,102736.42
2017-10-27T06:45:23.276Z,102744.63
2017-10-27T06:47:51.598Z,102745.98
2017-10-27T06:50:19.920Z,102751.23
2017-10-27T06:52:48.969Z,102773.27
2017-10-27T06:55:17.280Z,102774.46
2017-10-27T06:57:46.992Z,102772.28
2017-10-27T07:00:16.086Z,102782.73
2017-10-27T07:02:45.197Z,102774.77
2017-10-27T07:05:13.523Z,102793.17
2017-10-27T07:07:41.879Z,102795.94
2017-10-27T07:10:10.196Z,102788.31
2017-10-27T07:12:38.526Z,102796.27
2017-10-27T07:15:06.845Z,102805.50
2017-10-27T07:17:35.163Z,102805.61
2017-10-27T07:20:04.426Z,102819.84
2017-10-27T07:22:32.973Z,102837.09
2017-10-27T07:25:01.285Z,102836.77
2017-10-27T07:27:29.607Z,102844.75
2017-10-27T07:29:57.932Z,102837.71
2017-10-27T07:32:26.366Z,102839.13
2017-10-27T07:34:54.681Z,102835.99
2017-10-27T07:37:22.996Z,102839.60
2017-10-27T07:39:51.335Z,102831.13
2017-10-27T07:42:20.458Z,102841.31
2017-10-27T07:44:48.778Z,102849.50
2017-10-27T07:47:17.093Z,102842.16
2017-10-27T07:49:46.185Z,102843.50
2017-10-27T07:52:14.571Z,102851.34
2017-10-27T07:54:43.677Z,102853.78
2017-10-27T07:57:12.771Z,102863.84
2017-10-27T07:59:41.862Z,102859.77
2017-10-27T08:02:10.173Z,102855.16
2017-10-27T08:04:38.499Z,102861.21
2017-10-27T08:07:06.849Z,102864.14
2017-10-27T08:09:35.187Z,102860.91
2017-10-27T08:12:04.290Z,102869.44
2017-10-27T08:14:33.387Z,102874.53
2017-10-27T08:17:02.539Z,102879.91
2017-10-27T08:19:30.851Z,102881.61
2017-10-27T08:21:59.216Z,102886.27
2017-10-27T08:24:27.549Z,102894.48
2017-10-27T08:26:55.915Z,102898.34
2017-10-27T08:29:24.979Z,102899.80
2017-10-27T08:31:53.297Z,102908.09
2017-10-27T08:34:22.532Z,102909.08
2017-10-27T08:36:50.921Z,102909.34
2017-10-27T08:39:19.234Z,102907.25
2017-10-27T08:41:53.612Z,102907.39
2017-10-27T08:44:21.947Z,102914.02
2017-10-27T08:46:50.282Z,102919.28
2017-10-27T08:49:18.785Z,102925.75
2017-10-27T08:51:48.363Z,102928.75
2017-10-27T08:54:16.726Z,102944.49
2017-10-27T08:56:45.814Z,102946.20
2017-10-27T08:59:14.901Z,102948.35
2017-10-27T09:01:43.999Z,102951.29
2017-10-27T09:04:12.339Z,102963.38
2017-10-27T09:06:40.674Z,102961.45
2017-10-27T09:09:09.765Z,102963.84
2017-10-27T09:11:38.094Z,102976.77
2017-10-27T09:14:06.414Z,102977.11
2017-10-27T09:16:34.756Z,102968.63
2017-10-27T09:19:03.083Z,102974.25
2017-10-27T09:21:32.756Z,102986.67
2017-10-27T09:24:01.106Z,102995.37
2017-10-27T09:26:29.446Z,102998.30
2017-10-27T09:28:57.765Z,103005.69
2017-10-27T09:31:26.088Z,103013.59
2017-10-27T09:33:54.420Z,103017.91
2017-10-27T09:36:23.486Z,103016.48
2017-10-27T09:38:51.807Z,103026.86
2017-10-27T09:41:20.902Z,103041.89
2017-10-27T09:43:49.982Z,103039.58
2017-10-27T09:46:18.298Z,103040.53
2017-10-27T09:48:46.638Z,103035.27
2017-10-27T09:51:14.962Z,103046.36
2017-10-27T09:53:43.274Z,103054.50
2017-10-27T09:56:11.593Z,103058.04
2017-10-27T09:58:39.912Z,103062.68
2017-10-27T10:01:08.245Z,103060.28
2017-10-27T10:03:36.558Z,103064.53
2017-10-27T10:06:05.639Z,103058.59
2017-10-27T10:08:33.996Z,103059.11
2017-10-27T10:11:02.323Z,103064.06
2017-10-27T10:13:30.660Z,103065.05
2017-10-27T10:15:59.042Z,103072.28
2017-10-27T10:18:27.385Z,103077.22
2017-10-27T10:20:55.703Z,103078.53
2017-10-27T10:23:24.025Z,103079.85
2017-10-27T10:25:53.121Z,103076.70
2017-10-27T10:28:22.184Z,103082.45
2017-10-27T10:30:50.498Z,103081.48
2017-10-27T10:33:19.598Z,103076.83
2017-10-27T10:35:53.422Z,103072.97
2017-10-27T10:38:22.005Z,103095.61
2017-10-27T10:40:50.303Z,103088.55
2017-10-27T10:43:18.685Z,103095.95
2017-10-27T10:45:47.002Z,103109.88
2017-10-27T10:48:15.314Z,103112.44
2017-10-27T10:50:44.478Z,103110.25
2017-10-27T10:53:12.801Z,103113.86
2017-10-27T10:55:41.891Z,103106.52
2017-10-27T10:58:10.970Z,103104.42
2017-10-27T11:00:39.340Z,103099.97
2017-10-27T11:03:07.668Z,103101.32
2017-10-27T11:05:36.748Z,103097.44
2017-10-27T11:08:05.094Z,103104.03
2017-10-27T11:10:33.409Z,103092.08
2017-10-27T11:13:01.728Z,103101.00
2017-10-27T11:15:30.037Z,103108.22
2017-10-27T11:17:58.358Z,103105.31
2017-10-27T11:20:27.427Z,103101.66
2017-10-27T11:22:55.751Z,103105.10
2017-10-27T11:25:24.831Z,103101.01
2017-10-27T11:27:53.146Z,103108.85
2017-10-27T11:30:21.478Z,103107.14
2017-10-27T11:32:50.608Z,103116.99
2017-10-27T11:35:19.147Z,103105.10
2017-10-27T11:37:47.470Z,103122.98
2017-10-27T11:40:16.619Z,103108.50
2017-10-27T11:42:44.955Z,103120.97
2017-10-27T11:45:13.409Z,103116.30
2017-10-27T11:47:41.748Z,103132.58
2017-10-27T11:50:10.072Z,103139.55
2017-10-27T11:52:38.386Z,103128.41
2017-10-27T11:55:07.474Z,103134.00
2017-10-27T11:57:36.569Z,103129.70
2017-10-27T12:00:04.877Z,103123.46
2017-10-27T12:02:33.276Z,103128.08
2017-10-27T12:05:01.592Z,103125.19
2017-10-27T12:07:29.960Z,103137.98
2017-10-27T12:09:58.310Z,103138.35
2017-10-27T12:12:26.683Z,103130.48
2017-10-27T12:14:54.989Z,103131.35
2017-10-27T12:17:23.321Z,103123.20
2017-10-27T12:19:51.655Z,103116.77
2017-10-27T12:22:19.989Z,103124.19
2017-10-27T12:24:49.088Z,103125.27
2017-10-27T12:27:17.394Z,103138.19
2017-10-27T12:29:45.716Z,103131.48
2017-10-27T12:32:14.021Z,103135.55
2017-10-27T12:34:42.324Z,103138.92
2017-10-27T12:37:11.403Z,103133.51
2017-10-27T12:39:39.706Z,103140.53
2017-10-27T12:42:08.924Z,103132.41
2017-10-27T12:44:37.281Z,103140.42
2017-10-27T12:47:07.030Z,103142.98
2017-10-27T12:49:35.358Z,103142.25
2017-10-27T12:52:04.469Z,103143.25
2017-10-27T12:54:32.783Z,103134.56
2017-10-27T12:57:01.095Z,103139.58
2017-10-27T12:59:29.438Z,103143.03
2017-10-27T13:01:57.779Z,103142.95
2017-10-27T13:04:26.089Z,103145.37
2017-10-27T13:06:55.288Z,103143.23
2017-10-27T13:09:24.375Z,103149.92
2017-10-27T13:11:52.710Z,103158.94
2017-10-27T13:14:21.031Z,103152.47
2017-10-27T13:16:49.352Z,103154.31
2017-10-27T13:19:17.750Z,103156.08
2017-10-27T13:21:46.084Z,103150.70
2017-10-27T13:24:14.385Z,103151.56
2017-10-27T13:26:42.701Z,103146.98
2017-10-27T13:29:10.996Z,103155.39
2017-10-27T13:31:39.307Z,103166.63
2017-10-27T13:34:07.622Z,103166.06
2017-10-27T13:36:35.956Z,103167.53
2017-10-27T13:39:04.261Z,103170.23
2017-10-27T13:41:33.338Z,103174.38
2017-10-27T13:44:01.673Z,103178.00
2017-10-27T13:46:29.988Z,103192.98
2017-10-27T13:48:58.397Z,103184.66
2017-10-27T13:51:26.772Z,103195.90
2017-10-27T13:53:55.086Z,103200.64
2017-10-27T13:56:23.418Z,103202.31
2017-10-27T13:58:52.524Z,103197.42
2017-10-27T14:01:20.889Z,103190.84
2017-10-27T14:03:49.248Z,103197.84
2017-10-27T14:06:17.572Z,103200.12
2017-10-27T14:08:45.892Z,103202.17
2017-10-27T14:11:14.208Z,103195.59
2017-10-27T14:13:42.524Z,103189.45
2017-10-27T14:16:10.840Z,103199.87
2017-10-27T14:18:39.172Z,103196.77
2017-10-27T14:21:08.038Z,103207.10
2017-10-27T14:23:36.387Z,103201.38
2017-10-27T14:26:05.466Z,103196.85
2017-10-27T14:28:35.878Z,103200.63
2017-10-27T14:31:04.270Z,103208.19
2017-10-27T14:33:32.597Z,103205.16
2017-10-27T14:36:00.918Z,103200.29
2017-10-27T14:38:29.224Z,103217.89
2017-10-27T14:40:58.300Z,103218.61
2017-10-27T14:43:26.629Z,103215.34
2017-10-27T14:45:54.949Z,103217.36
2017-10-27T14:48:23.264Z,103219.37
2017-10-27T14:50:52.376Z,103225.02
2017-10-27T14:53:21.439Z,103242.68
2017-10-27T14:55:49.755Z,103249.08
2017-10-27T14:58:18.134Z,103246.33
2017-10-27T15:00:47.300Z,103234.65
2017-10-27T15:03:16.670Z,103233.98
2017-10-27T15:05:44.984Z,103235.20
2017-10-27T15:08:13.300Z,103235.53
2017-10-27T15:10:42.376Z,103237.47
2017-10-27T15:13:15.968Z,103241.09
2017-10-27T15:15:44.293Z,103244.70
2017-10-27T15:18:13.365Z,103241.67
2017-10-27T15:20:41.696Z,103230.95
2017-10-27T15:23:10.011Z,103238.60
2017-10-27T15:25:38.351Z,103224.90
2017-10-27T15:28:06.664Z,103220.95
2017-10-27T15:30:35.008Z,103219.77
2017-10-27T15:33:03.331Z,103220.53
2017-10-27T15:35:31.642Z,103212.08
2017-10-27T15:38:00.767Z,103207.28
2017-10-27T15:40:29.073Z,103214.34
2017-10-27T15:42:57.382Z,103212.74
2017-10-27T15:45:28.753Z,103206.86
2017-10-27T15:48:08.571Z,103203.75
2017-10-27T15:50:36.897Z,103199.97
2017-10-27T15:53:06.361Z,103212.83
2017-10-27T15:55:40.437Z,103205.13
2017-10-27T15:58:13.785Z,103202.52
2017-10-27T16:00:44.808Z,103192.80
2017-10-27T16:03:15.332Z,103199.52
2017-10-27T16:05:43.709Z,103195.64
2017-10-27T16:08:12.049Z,103200.12
2017-10-27T16:13:21.083Z,103210.09
2017-10-27T16:15:50.207Z,103221.59
2017-10-27T16:18:18.530Z,103236.22
2017-10-27T16:20:47.612Z,103228.98
2017-10-27T16:23:15.947Z,103239.75
2017-10-27T16:25:45.027Z,103253.26
2017-10-27T16:28:13.372Z,103241.59
2017-10-27T16:30:41.676Z,103250.58
2017-10-27T16:33:09.997Z,103240.33
2017-10-27T16:35:38.306Z,103247.22
2017-10-27T16:38:06.625Z,103249.48
2017-10-27T16:40:34.991Z,103243.36
2017-10-27T16:43:03.296Z,103237.72
2017-10-27T16:45:31.613Z,103236.04
2017-10-27T16:47:59.933Z,103249.73
2017-10-27T16:50:30.206Z,103256.85
2017-10-27T16:52:58.545Z,103253.14
2017-10-27T16:55:26.860Z,103260.86
2017-10-27T16:57:55.940Z,103264.97
2017-10-27T17:00:24.245Z,103260.27
2017-10-27T17:02:53.342Z,103259.09
2017-10-27T17:05:21.678Z,103260.78
2017-10-27T17:07:49.997Z,103263.91
2017-10-27T17:10:19.065Z,103260.12
2017-10-27T17:12:47.475Z,103255.75
2017-10-27T17:15:16.581Z,103256.01
2017-10-27T17:17:45.647Z,103259.45
2017-10-27T17:20:13.957Z,103259.86
2017-10-27T17:22:43.060Z,103245.51
2017-10-27T17:25:12.197Z,103258.02
2017-10-27T17:27:40.526Z,103252.30
2017-10-27T17:30:08.854Z,103257.58
2017-10-27T17:32:37.243Z,103255.73
2017-10-27T17:35:05.564Z,103247.52
2017-10-27T17:37:33.873Z,103245.59
2017-10-27T17:40:02.971Z,103246.67
2017-10-27T17:42:32.680Z,103239.78
2017-10-27T17:45:01.832Z,103236.02
2017-10-27T17:47:30.207Z,103238.77
2017-10-27T17:49:58.523Z,103239.11
2017-10-27T17:52:26.844Z,103239.72
2017-10-27T17:54:55.151Z,103246.49
2017-10-27T17:57:23.509Z,103257.31
2017-10-27T17:59:51.816Z,103251.88
2017-10-27T18:02:20.158Z,103238.69
2017-10-27T18:04:48.483Z,103247.59
2017-10-27T18:07:16.861Z,103258.57
2017-10-27T18:09:45.210Z,103250.41
2017-10-27T18:12:13.540Z,103253.03
2017-10-27T18:14:41.891Z,103254.27
2017-10-27T18:17:10.223Z,103258.55
2017-10-27T18:19:38.554Z,103251.58
2017-10-27T18:22:06.884Z,103252.73
2017-10-27T18:24:35.239Z,103252.05
2017-10-27T18:27:03.638Z,103256.98
2017-10-27T18:29:31.969Z,103252.63
2017-10-27T18:32:00.289Z,103256.89
2017-10-27T18:34:28.689Z,103256.28
2017-10-27T18:36:57.035Z,103247.05
2017-10-27T18:39:25.361Z,103248.13
2017-10-27T18:41:53.659Z,103247.19
2017-10-27T18:44:22.881Z,103242.92
2017-10-27T18:46:51.211Z,103238.22
2017-10-27T18:49:19.523Z,103240.22
2017-10-27T18:51:48.592Z,103246.06
2017-10-27T18:54:16.889Z,103248.67
2017-10-27T18:56:46.034Z,103253.59
2017-10-27T18:59:14.412Z,103243.02
2017-10-27T19:01:43.496Z,103247.69
2017-10-27T19:04:12.642Z,103241.41
2017-10-27T19:06:41.221Z,103243.62
2017-10-27T19:09:09.545Z,103238.75
2017-10-27T19:11:38.614Z,103238.66
2017-10-27T19:14:06.933Z,103234.67
2017-10-27T19:16:36.015Z,103227.72
2017-10-27T19:19:04.325Z,103233.95
2017-10-27T19:21:32.727Z,103231.08
2017-10-27T19:24:01.120Z,103230.92
2017-10-27T19:26:29.955Z,103223.88
2017-10-27T19:28:58.485Z,103224.55
2017-10-27T19:31:26.804Z,103214.73
2017-10-27T19:33:55.114Z,103223.05
2017-10-27T19:36:24.214Z,103218.77
2017-10-27T19:38:53.305Z,103225.81
2017-10-27T19:41:22.392Z,103216.84
2017-10-27T19:43:50.708Z,103218.87
2017-10-27T19:46:19.031Z,103216.69
2017-10-27T19:48:47.352Z,103216.77
2017-10-27T19:51:16.428Z,103223.88
2017-10-27T19:53:44.746Z,103229.91
2017-10-27T19:56:13.090Z,103226.85
2017-10-27T19:58:42.173Z,103229.20
2017-10-27T20:01:10.490Z,103214.94
2017-10-27T20:03:39.631Z,103218.04
2017-10-27T20:06:07.984Z,103213.55
2017-10-27T20:08:36.331Z,103212.67
2017-10-27T20:11:04.664Z,103210.33
2017-10-27T20:13:32.993Z,103205.73
2017-10-27T20:16:01.407Z,103211.86
2017-10-27T20:18:30.509Z,103209.86
2017-10-27T20:20:59.591Z,103211.09
2017-10-27T20:23:27.988Z,103209.48
2017-10-27T20:25:57.079Z,103209.77
2017-10-27T20:28:26.703Z,103203.45
2017-10-27T20:30:55.007Z,103212.16
2017-10-27T20:33:23.326Z,103198.06
2017-10-27T20:35:51.722Z,103207.19
2017-10-27T20:38:20.058Z,103206.08
2017-10-27T20:40:48.392Z,103209.19
2017-10-27T20:43:16.698Z,103200.69
2017-10-27T20:45:44.999Z,103192.62
2017-10-27T20:48:13.304Z,103193.12
2017-10-27T20:50:41.625Z,103185.68
2017-10-27T20:53:09.977Z,103190.02
2017-10-27T20:55:38.333Z,103188.75
2017-10-27T20:58:06.647Z,103182.81
2017-10-27T21:00:35.109Z,103185.50
2017-10-27T21:03:05.073Z,103180.29
2017-10-27T21:05:34.147Z,103181.44
2017-10-27T21:08:02.513Z,103178.92
2017-10-27T21:10:30.866Z,103174.06
2017-10-27T21:13:00.618Z,103172.61
2017-10-27T21:15:30.056Z,103166.75
2017-10-27T21:17:59.158Z,103166.06
2017-10-27T21:20:28.233Z,103166.91
2017-10-27T21:22:56.560Z,103167.83
2017-10-27T21:25:24.909Z,103154.50
2017-10-27T21:27:54.059Z,103162.13
2017-10-27T21:30:22.367Z,103163.62
2017-10-27T21:32:50.687Z,103173.08
2017-10-27T21:35:19.003Z,103168.95
2017-10-27T21:37:47.321Z,103167.53
2017-10-27T21:40:15.638Z,103170.95
2017-10-27T21:42:43.979Z,103163.91
2017-10-27T21:45:12.286Z,103163.91
2017-10-27T21:47:41.381Z,103152.34
2017-10-27T21:50:10.453Z,103155.28
2017-10-27T21:52:38.773Z,103157.31
2017-10-27T21:55:07.962Z,103161.41
2017-10-27T21:57:37.056Z,103152.36
2017-10-27T22:00:06.129Z,103148.77
2017-10-27T22:02:34.468Z,103132.34
2017-10-27T22:05:02.796Z,103132.75
2017-10-27T22:07:31.113Z,103134.86
2017-10-27T22:09:59.437Z,103131.26
2017-10-27T22:12:27.784Z,103119.45
2017-10-27T22:14:56.093Z,103123.32
2017-10-27T22:17:24.429Z,103118.30
2017-10-27T22:19:52.754Z,103116.54
2017-10-27T22:22:21.067Z,103110.86
2017-10-27T22:24:49.390Z,103110.28
2017-10-27T22:27:17.794Z,103102.16
2017-10-27T22:29:46.097Z,103094.77
2017-10-27T22:32:14.431Z,103094.11
2017-10-27T22:34:42.737Z,103092.45
2017-10-27T22:37:11.047Z,103082.56
2017-10-27T22:39:39.361Z,103084.82
2017-10-27T22:42:08.481Z,103078.62
2017-10-27T22:44:36.793Z,103079.88
2017-10-27T22:47:05.122Z,103074.52
2017-10-27T22:49:34.219Z,103074.77
2017-10-27T22:52:02.550Z,103073.09
2017-10-27T22:54:30.873Z,103065.73
2017-10-27T22:56:59.957Z,103061.63
2017-10-27T22:59:29.051Z,103058.52
2017-10-27T23:01:57.397Z,103057.11
2017-10-27T23:04:25.725Z,103055.60
2017-10-27T23:06:54.821Z,103051.32
2017-10-27T23:09:23.979Z,103052.06
2017-10-27T23:11:52.314Z,103051.22
2017-10-27T23:14:21.449Z,103045.86
2017-10-27T23:16:49.774Z,103043.59
2017-10-27T23:19:18.118Z,103040.07
2017-10-27T23:21:46.426Z,103046.20
2017-10-27T23:24:14.763Z,103035.73
2017-10-27T23:26:43.083Z,103032.80
2017-10-27T23:29:11.388Z,103032.47
2017-10-27T23:31:40.479Z,103033.13
2017-10-27T23:34:08.796Z,103037.48
2017-10-27T23:36:37.094Z,103031.79
2017-10-27T23:39:05.410Z,103029.95
2017-10-27T23:41:33.717Z,103023.41
2017-10-27T23:44:02.016Z,103013.02
2017-10-27T23:46:30.333Z,103014.70
2017-10-27T23:48:58.663Z,103013.02
2017-10-27T23:51:27.721Z,103000.09
2017-10-27T23:53:56.076Z,102995.80
2017-10-27T23:56:24.381Z,102990.02
2017-10-27T23:58:52.688Z,102984.24
